sensor_id;sensor_type;location;lat;lon;timestamp;pressure;altitude;pressure_sealevel;temperature;humidity
30856;BME280;17570;0.000;0.000;2022-12-16T00:00:41;96701.98;;;12.37;46.59
30856;BME280;17570;0.000;0.000;2022-12-16T00:03:09;96714.30;;;12.35;46.39
30856;BME280;17570;0.000;0.000;2022-12-16T00:05:36;96725.68;;;12.34;46.51
30856;BME280;17570;0.000;0.000;2022-12-16T00:08:04;96716.78;;;12.37;46.25
30856;BME280;17570;0.000;0.000;2022-12-16T00:10:31;96691.31;;;12.40;46.01
30856;BME280;17570;0.000;0.000;2022-12-16T00:13:00;96698.15;;;12.41;45.92
30856;BME280;17570;0.000;0.000;2022-12-16T00:15:27;96686.63;;;12.44;46.02
30856;BME280;17570;0.000;0.000;2022-12-16T00:17:59;96694.59;;;12.33;46.34
30856;BME280;17570;0.000;0.000;2022-12-16T00:20:26;96695.83;;;12.29;46.64
30856;BME280;17570;0.000;0.000;2022-12-16T00:22:54;96718.28;;;12.30;46.49
30856;BME280;17570;0.000;0.000;2022-12-16T00:25:21;96714.30;;;12.35;46.56
30856;BME280;17570;0.000;0.000;2022-12-16T00:27:49;96719.41;;;12.27;46.71
30856;BME280;17570;0.000;0.000;2022-12-16T00:30:16;96715.27;;;12.34;46.22
30856;BME280;17570;0.000;0.000;2022-12-16T00:32:44;96724.45;;;12.29;46.09
30856;BME280;17570;0.000;0.000;2022-12-16T00:35:11;96724.20;;;12.22;46.47
30856;BME280;17570;0.000;0.000;2022-12-16T00:37:39;96720.89;;;12.30;46.61
30856;BME280;17570;0.000;0.000;2022-12-16T00:40:06;96733.23;;;12.28;46.75
30856;BME280;17570;0.000;0.000;2022-12-16T00:42:34;96726.91;;;12.30;47.10
30856;BME280;17570;0.000;0.000;2022-12-16T00:45:02;96724.86;;;12.34;46.86
30856;BME280;17570;0.000;0.000;2022-12-16T00:47:30;96721.86;;;12.29;46.73
30856;BME280;17570;0.000;0.000;2022-12-16T00:49:57;96730.08;;;12.24;47.03
30856;BME280;17570;0.000;0.000;2022-12-16T00:52:25;96725.55;;;12.26;47.10
30856;BME280;17570;0.000;0.000;2022-12-16T00:54:52;96737.20;;;12.32;47.39
30856;BME280;17570;0.000;0.000;2022-12-16T00:57:20;96730.33;;;12.31;47.00
30856;BME280;17570;0.000;0.000;2022-12-16T00:59:48;96729.25;;;12.33;46.86
30856;BME280;17570;0.000;0.000;2022-12-16T01:02:15;96725.83;;;12.33;47.18
30856;BME280;17570;0.000;0.000;2022-12-16T01:04:43;96716.91;;;12.35;47.20
30856;BME280;17570;0.000;0.000;2022-12-16T01:07:10;96721.44;;;12.33;47.15
30856;BME280;17570;0.000;0.000;2022-12-16T01:09:38;96718.17;;;12.31;47.14
30856;BME280;17570;0.000;0.000;2022-12-16T01:12:05;96719.10;;;12.30;47.11
30856;BME280;17570;0.000;0.000;2022-12-16T01:14:33;96721.59;;;12.32;46.96
30856;BME280;17570;0.000;0.000;2022-12-16T01:17:00;96711.84;;;12.34;46.49
30856;BME280;17570;0.000;0.000;2022-12-16T01:19:28;96711.30;;;12.30;46.58
30856;BME280;17570;0.000;0.000;2022-12-16T01:21:55;96707.76;;;12.31;46.34
30856;BME280;17570;0.000;0.000;2022-12-16T01:24:23;96712.96;;;12.31;46.14
30856;BME280;17570;0.000;0.000;2022-12-16T01:26:50;96708.69;;;12.30;46.20
30856;BME280;17570;0.000;0.000;2022-12-16T01:29:18;96702.13;;;12.26;46.45
30856;BME280;17570;0.000;0.000;2022-12-16T01:31:45;96692.83;;;12.23;46.57
30856;BME280;17570;0.000;0.000;2022-12-16T01:34:13;96683.79;;;12.28;46.16
30856;BME280;17570;0.000;0.000;2022-12-16T01:36:43;96679.00;;;12.23;46.13
30856;BME280;17570;0.000;0.000;2022-12-16T01:39:11;96675.84;;;12.19;46.07
30856;BME280;17570;0.000;0.000;2022-12-16T01:41:38;96673.66;;;12.15;46.50
30856;BME280;17570;0.000;0.000;2022-12-16T01:44:10;96667.09;;;12.11;46.50
30856;BME280;17570;0.000;0.000;2022-12-16T01:46:38;96655.31;;;12.07;46.29
30856;BME280;17570;0.000;0.000;2022-12-16T01:49:07;96658.20;;;12.13;46.17
30856;BME280;17570;0.000;0.000;2022-12-16T01:51:36;96651.78;;;12.08;46.32
30856;BME280;17570;0.000;0.000;2022-12-16T01:54:05;96647.91;;;12.12;46.07
30856;BME280;17570;0.000;0.000;2022-12-16T01:56:33;96635.60;;;12.14;45.91
30856;BME280;17570;0.000;0.000;2022-12-16T01:59:01;96634.09;;;12.11;45.92
30856;BME280;17570;0.000;0.000;2022-12-16T02:01:29;96631.64;;;12.10;46.00
30856;BME280;17570;0.000;0.000;2022-12-16T02:03:57;96624.40;;;12.04;46.47
30856;BME280;17570;0.000;0.000;2022-12-16T02:06:27;96620.98;;;12.03;46.16
30856;BME280;17570;0.000;0.000;2022-12-16T02:08:56;96623.15;;;11.98;46.24
30856;BME280;17570;0.000;0.000;2022-12-16T02:14:32;96607.55;;;12.08;45.95
30856;BME280;17570;0.000;0.000;2022-12-16T02:30:28;96621.95;;;11.83;46.47
30856;BME280;17570;0.000;0.000;2022-12-16T02:32:59;96627.43;;;11.89;46.33
30856;BME280;17570;0.000;0.000;2022-12-16T02:35:38;96626.31;;;11.92;46.14
30856;BME280;17570;0.000;0.000;2022-12-16T02:41:02;96622.88;;;11.82;46.66
30856;BME280;17570;0.000;0.000;2022-12-16T02:43:26;96624.25;;;11.76;46.96
30856;BME280;17570;0.000;0.000;2022-12-16T02:45:50;96636.98;;;11.89;46.90
30856;BME280;17570;0.000;0.000;2022-12-16T02:48:18;96631.77;;;11.79;46.68
30856;BME280;17570;0.000;0.000;2022-12-16T02:50:48;96618.36;;;11.74;47.31
30856;BME280;17570;0.000;0.000;2022-12-16T02:53:17;96617.45;;;11.85;47.12
30856;BME280;17570;0.000;0.000;2022-12-16T02:55:50;96614.55;;;11.88;47.46
30856;BME280;17570;0.000;0.000;2022-12-16T02:58:15;96612.09;;;11.86;47.30
30856;BME280;17570;0.000;0.000;2022-12-16T03:00:48;96609.64;;;11.85;47.15
30856;BME280;17570;0.000;0.000;2022-12-16T03:03:17;96611.68;;;11.91;46.98
30856;BME280;17570;0.000;0.000;2022-12-16T03:05:42;96615.25;;;11.90;47.02
30856;BME280;17570;0.000;0.000;2022-12-16T03:08:24;96614.02;;;11.94;46.89
30856;BME280;17570;0.000;0.000;2022-12-16T03:10:53;96608.93;;;11.92;46.72
30856;BME280;17570;0.000;0.000;2022-12-16T03:13:19;96610.16;;;11.88;46.81
30856;BME280;17570;0.000;0.000;2022-12-16T03:15:48;96595.26;;;11.90;46.93
30856;BME280;17570;0.000;0.000;2022-12-16T03:18:17;96605.91;;;11.97;46.73
30856;BME280;17570;0.000;0.000;2022-12-16T03:20:49;96612.08;;;11.96;46.68
30856;BME280;17570;0.000;0.000;2022-12-16T03:23:16;96612.24;;;11.85;47.13
30856;BME280;17570;0.000;0.000;2022-12-16T03:25:44;96623.05;;;11.90;47.18
30856;BME280;17570;0.000;0.000;2022-12-16T03:30:49;96627.02;;;11.94;47.15
30856;BME280;17570;0.000;0.000;2022-12-16T03:33:24;96622.48;;;11.96;47.05
30856;BME280;17570;0.000;0.000;2022-12-16T03:36:38;96617.28;;;11.96;47.02
30856;BME280;17570;0.000;0.000;2022-12-16T03:38:21;96624.94;;;11.97;47.20
30856;BME280;17570;0.000;0.000;2022-12-16T03:40:50;96620.70;;;11.96;47.20
30856;BME280;17570;0.000;0.000;2022-12-16T03:43:18;96627.13;;;12.02;47.15
30856;BME280;17570;0.000;0.000;2022-12-16T03:45:48;96629.72;;;12.02;47.13
30856;BME280;17570;0.000;0.000;2022-12-16T03:48:16;96634.80;;;12.04;47.09
30856;BME280;17570;0.000;0.000;2022-12-16T03:50:45;96640.27;;;12.00;47.53
30856;BME280;17570;0.000;0.000;2022-12-16T03:53:12;96635.73;;;12.03;47.67
30856;BME280;17570;0.000;0.000;2022-12-16T03:55:40;96634.51;;;12.07;47.69
30856;BME280;17570;0.000;0.000;2022-12-16T03:58:08;96636.98;;;12.08;47.67
30856;BME280;17570;0.000;0.000;2022-12-16T04:00:35;96625.77;;;12.08;47.56
30856;BME280;17570;0.000;0.000;2022-12-16T04:03:03;96637.51;;;12.12;47.78
30856;BME280;17570;0.000;0.000;2022-12-16T04:05:30;96636.69;;;12.11;47.45
30856;BME280;17570;0.000;0.000;2022-12-16T04:07:58;96630.67;;;12.11;47.60
30856;BME280;17570;0.000;0.000;2022-12-16T04:10:25;96618.36;;;12.13;47.46
30856;BME280;17570;0.000;0.000;2022-12-16T04:13:11;96625.20;;;12.14;47.55
30856;BME280;17570;0.000;0.000;2022-12-16T04:15:57;96631.23;;;12.05;47.72
30856;BME280;17570;0.000;0.000;2022-12-16T04:18:42;96628.78;;;12.03;48.25
30856;BME280;17570;0.000;0.000;2022-12-16T04:21:28;96635.07;;;12.00;47.89
30856;BME280;17570;0.000;0.000;2022-12-16T04:24:14;96623.30;;;11.96;48.17
30856;BME280;17570;0.000;0.000;2022-12-16T04:26:46;96614.83;;;11.94;48.32
30856;BME280;17570;0.000;0.000;2022-12-16T04:29:31;96623.58;;;12.03;48.10
30856;BME280;17570;0.000;0.000;2022-12-16T04:31:59;96615.34;;;11.98;48.29
30856;BME280;17570;0.000;0.000;2022-12-16T04:34:27;96608.22;;;12.10;48.26
30856;BME280;17570;0.000;0.000;2022-12-16T04:36:56;96608.63;;;12.15;47.92
30856;BME280;17570;0.000;0.000;2022-12-16T04:39:42;96605.88;;;12.16;48.13
30856;BME280;17570;0.000;0.000;2022-12-16T04:42:27;96606.05;;;12.05;49.04
30856;BME280;17570;0.000;0.000;2022-12-16T04:45:13;96594.67;;;12.06;49.77
30856;BME280;17570;0.000;0.000;2022-12-16T04:47:59;96600.42;;;12.10;49.82
30856;BME280;17570;0.000;0.000;2022-12-16T04:50:44;96603.84;;;12.10;49.59
30856;BME280;17570;0.000;0.000;2022-12-16T04:53:30;96609.04;;;12.10;49.61
30856;BME280;17570;0.000;0.000;2022-12-16T04:56:15;96614.09;;;12.12;49.48
30856;BME280;17570;0.000;0.000;2022-12-16T04:59:01;96620.11;;;12.12;49.75
30856;BME280;17570;0.000;0.000;2022-12-16T05:01:46;96616.55;;;12.23;50.48
30856;BME280;17570;0.000;0.000;2022-12-16T05:04:32;96613.50;;;12.37;51.58
30856;BME280;17570;0.000;0.000;2022-12-16T05:07:18;96616.49;;;12.42;51.56
30856;BME280;17570;0.000;0.000;2022-12-16T05:10:03;96624.70;;;12.47;51.76
30856;BME280;17570;0.000;0.000;2022-12-16T05:12:51;96619.48;;;12.47;51.88
30856;BME280;17570;0.000;0.000;2022-12-16T05:15:36;96616.06;;;12.47;51.29
30856;BME280;17570;0.000;0.000;2022-12-16T05:18:13;96609.50;;;12.43;50.75
30856;BME280;17570;0.000;0.000;2022-12-16T05:21:00;96609.31;;;12.54;50.32
30856;BME280;17570;0.000;0.000;2022-12-16T05:23:42;96618.67;;;12.47;50.27
30856;BME280;17570;0.000;0.000;2022-12-16T05:26:14;96623.33;;;12.43;50.38
30856;BME280;17570;0.000;0.000;2022-12-16T05:29:00;96623.45;;;12.51;49.99
30856;BME280;17570;0.000;0.000;2022-12-16T05:31:45;96622.09;;;12.47;50.04
30856;BME280;17570;0.000;0.000;2022-12-16T05:34:15;96608.41;;;12.45;49.97
30856;BME280;17570;0.000;0.000;2022-12-16T05:37:00;96612.77;;;12.55;49.75
30856;BME280;17570;0.000;0.000;2022-12-16T05:39:46;96635.66;;;12.51;49.82
30856;BME280;17570;0.000;0.000;2022-12-16T05:42:31;96627.45;;;12.46;50.01
30856;BME280;17570;0.000;0.000;2022-12-16T05:45:17;96643.19;;;12.44;49.86
30856;BME280;17570;0.000;0.000;2022-12-16T05:48:02;96653.48;;;12.46;49.95
30856;BME280;17570;0.000;0.000;2022-12-16T05:50:48;96653.59;;;12.44;50.14
30856;BME280;17570;0.000;0.000;2022-12-16T05:53:34;96643.19;;;12.44;50.11
30856;BME280;17570;0.000;0.000;2022-12-16T05:56:20;96641.86;;;12.40;50.18
30856;BME280;17570;0.000;0.000;2022-12-16T05:59:06;96643.88;;;12.46;50.10
30856;BME280;17570;0.000;0.000;2022-12-16T06:01:51;96643.88;;;12.46;50.29
30856;BME280;17570;0.000;0.000;2022-12-16T06:04:37;96652.23;;;12.50;50.11
30856;BME280;17570;0.000;0.000;2022-12-16T06:07:22;96664.56;;;12.48;49.98
30856;BME280;17570;0.000;0.000;2022-12-16T06:10:08;96654.96;;;12.48;50.09
30856;BME280;17570;0.000;0.000;2022-12-16T06:12:54;96671.39;;;12.49;50.09
30856;BME280;17570;0.000;0.000;2022-12-16T06:15:41;96670.46;;;12.50;50.04
30856;BME280;17570;0.000;0.000;2022-12-16T06:18:26;96676.61;;;12.49;49.87
30856;BME280;17570;0.000;0.000;2022-12-16T06:21:12;96674.16;;;12.47;49.99
30856;BME280;17570;0.000;0.000;2022-12-16T06:23:57;96674.16;;;12.47;50.03
30856;BME280;17570;0.000;0.000;2022-12-16T06:26:43;96669.77;;;12.48;50.05
30856;BME280;17570;0.000;0.000;2022-12-16T06:29:29;96673.88;;;12.50;50.14
30856;BME280;17570;0.000;0.000;2022-12-16T06:32:14;96678.94;;;12.52;50.27
30856;BME280;17570;0.000;0.000;2022-12-16T06:35:00;96678.78;;;12.54;50.29
30856;BME280;17570;0.000;0.000;2022-12-16T06:37:46;96676.19;;;12.54;50.46
30856;BME280;17570;0.000;0.000;2022-12-16T06:40:32;96690.86;;;12.55;50.55
30856;BME280;17570;0.000;0.000;2022-12-16T06:43:17;96691.69;;;12.55;50.72
30856;BME280;17570;0.000;0.000;2022-12-16T06:46:03;96709.75;;;12.57;50.58
30856;BME280;17570;0.000;0.000;2022-12-16T06:48:48;96724.29;;;12.59;50.66
30856;BME280;17570;0.000;0.000;2022-12-16T06:51:34;96742.63;;;12.58;50.79
30856;BME280;17570;0.000;0.000;2022-12-16T06:54:20;96745.23;;;12.58;50.76
30856;BME280;17570;0.000;0.000;2022-12-16T06:57:05;96737.83;;;12.63;50.74
30856;BME280;17570;0.000;0.000;2022-12-16T06:59:51;96742.91;;;12.64;50.94
30856;BME280;17570;0.000;0.000;2022-12-16T07:02:37;96734.95;;;12.66;50.99
30856;BME280;17570;0.000;0.000;2022-12-16T07:05:24;96735.92;;;12.65;51.17
30856;BME280;17570;0.000;0.000;2022-12-16T07:08:10;96748.94;;;12.65;51.19
30856;BME280;17570;0.000;0.000;2022-12-16T07:10:56;96766.33;;;12.74;51.13
30856;BME280;17570;0.000;0.000;2022-12-16T07:13:41;96761.91;;;12.84;50.98
30856;BME280;17570;0.000;0.000;2022-12-16T07:16:27;96759.97;;;12.86;50.95
30856;BME280;17570;0.000;0.000;2022-12-16T07:19:12;96765.73;;;12.90;50.95
30856;BME280;17570;0.000;0.000;2022-12-16T07:21:57;96779.30;;;12.93;51.04
30856;BME280;17570;0.000;0.000;2022-12-16T07:24:42;96766.12;;;12.95;51.09
30856;BME280;17570;0.000;0.000;2022-12-16T07:27:28;96762.98;;;13.01;51.00
30856;BME280;17570;0.000;0.000;2022-12-16T07:30:13;96760.88;;;13.05;51.06
30856;BME280;17570;0.000;0.000;2022-12-16T07:32:59;96774.84;;;13.13;51.10
30856;BME280;17570;0.000;0.000;2022-12-16T07:35:44;96763.02;;;13.19;51.07
30856;BME280;17570;0.000;0.000;2022-12-16T07:38:30;96762.63;;;13.23;51.18
30856;BME280;17570;0.000;0.000;2022-12-16T07:41:16;96747.69;;;13.25;51.43
30856;BME280;17570;0.000;0.000;2022-12-16T07:44:03;96749.55;;;13.33;51.24
30856;BME280;17570;0.000;0.000;2022-12-16T07:46:48;96737.75;;;13.39;51.17
30856;BME280;17570;0.000;0.000;2022-12-16T07:49:34;96726.89;;;13.61;51.91
30856;BME280;17570;0.000;0.000;2022-12-16T07:52:20;96728.36;;;13.91;52.37
30856;BME280;17570;0.000;0.000;2022-12-16T07:55:06;96723.59;;;14.04;52.23
30856;BME280;17570;0.000;0.000;2022-12-16T07:57:52;96714.63;;;14.07;51.64
30856;BME280;17570;0.000;0.000;2022-12-16T08:00:37;96717.56;;;14.04;51.46
30856;BME280;17570;0.000;0.000;2022-12-16T08:03:23;96730.16;;;14.09;51.10
30856;BME280;17570;0.000;0.000;2022-12-16T08:06:08;96718.05;;;14.08;51.23
30856;BME280;17570;0.000;0.000;2022-12-16T08:08:54;96720.54;;;14.09;50.94
30856;BME280;17570;0.000;0.000;2022-12-16T08:11:39;96722.98;;;14.11;50.99
30856;BME280;17570;0.000;0.000;2022-12-16T08:14:25;96733.42;;;14.11;50.96
30856;BME280;17570;0.000;0.000;2022-12-16T08:17:11;96721.20;;;14.11;50.93
30856;BME280;17570;0.000;0.000;2022-12-16T08:19:56;96710.91;;;14.10;51.15
30856;BME280;17570;0.000;0.000;2022-12-16T08:22:42;96710.30;;;14.16;51.03
30856;BME280;17570;0.000;0.000;2022-12-16T08:25:28;96706.42;;;14.20;51.09
30856;BME280;17570;0.000;0.000;2022-12-16T08:28:13;96711.72;;;14.28;50.87
30856;BME280;17570;0.000;0.000;2022-12-16T08:30:59;96714.17;;;14.29;50.95
30856;BME280;17570;0.000;0.000;2022-12-16T08:33:44;96704.34;;;14.23;51.45
30856;BME280;17570;0.000;0.000;2022-12-16T08:36:30;96706.14;;;14.23;51.67
30856;BME280;17570;0.000;0.000;2022-12-16T08:39:15;96687.41;;;14.27;51.92
30856;BME280;17570;0.000;0.000;2022-12-16T08:42:01;96707.16;;;14.30;51.80
30856;BME280;17570;0.000;0.000;2022-12-16T08:44:47;96706.41;;;14.38;51.65
30856;BME280;17570;0.000;0.000;2022-12-16T08:47:32;96701.38;;;14.44;51.57
30856;BME280;17570;0.000;0.000;2022-12-16T08:50:18;96701.77;;;14.49;51.60
30856;BME280;17570;0.000;0.000;2022-12-16T08:53:04;96693.19;;;14.57;51.33
30856;BME280;17570;0.000;0.000;2022-12-16T08:55:51;96689.81;;;14.65;51.34
30856;BME280;17570;0.000;0.000;2022-12-16T08:58:37;96677.59;;;14.73;51.24
30856;BME280;17570;0.000;0.000;2022-12-16T09:01:22;96663.47;;;14.84;51.14
30856;BME280;17570;0.000;0.000;2022-12-16T09:04:08;96670.37;;;14.93;51.04
30856;BME280;17570;0.000;0.000;2022-12-16T09:06:53;96667.12;;;14.99;51.04
30856;BME280;17570;0.000;0.000;2022-12-16T09:09:39;96659.45;;;15.06;51.22
30856;BME280;17570;0.000;0.000;2022-12-16T09:12:25;96656.75;;;15.16;51.02
30856;BME280;17570;0.000;0.000;2022-12-16T09:15:07;96654.14;;;15.24;51.23
30856;BME280;17570;0.000;0.000;2022-12-16T09:17:53;96660.08;;;15.42;51.17
30856;BME280;17570;0.000;0.000;2022-12-16T09:20:39;96654.53;;;15.45;51.00
30856;BME280;17570;0.000;0.000;2022-12-16T09:23:26;96650.79;;;15.56;50.84
30856;BME280;17570;0.000;0.000;2022-12-16T09:26:12;96662.13;;;15.65;51.05
30856;BME280;17570;0.000;0.000;2022-12-16T09:28:57;96653.81;;;15.77;51.35
30856;BME280;17570;0.000;0.000;2022-12-16T09:31:43;96648.44;;;15.95;51.25
30856;BME280;17570;0.000;0.000;2022-12-16T09:34:28;96658.57;;;16.15;51.08
30856;BME280;17570;0.000;0.000;2022-12-16T09:37:14;96635.30;;;16.36;50.85
30856;BME280;17570;0.000;0.000;2022-12-16T09:40:00;96634.78;;;16.57;50.83
30856;BME280;17570;0.000;0.000;2022-12-16T09:45:54;96628.73;;;17.12;49.80
30856;BME280;17570;0.000;0.000;2022-12-16T09:51:23;96627.20;;;17.72;48.40
30856;BME280;17570;0.000;0.000;2022-12-16T09:54:11;96615.33;;;18.07;47.47
30856;BME280;17570;0.000;0.000;2022-12-16T09:56:57;96613.21;;;18.40;46.50
30856;BME280;17570;0.000;0.000;2022-12-16T09:59:44;96631.57;;;18.78;45.32
30856;BME280;17570;0.000;0.000;2022-12-16T10:02:30;96618.03;;;19.10;45.28
30856;BME280;17570;0.000;0.000;2022-12-16T10:05:17;96635.92;;;19.51;44.70
30856;BME280;17570;0.000;0.000;2022-12-16T10:08:14;96622.75;;;19.87;44.09
30856;BME280;17570;0.000;0.000;2022-12-16T10:11:11;96616.51;;;20.17;43.34
30856;BME280;17570;0.000;0.000;2022-12-16T10:13:54;96622.05;;;20.50;42.32
30856;BME280;17570;0.000;0.000;2022-12-16T10:16:51;96624.89;;;20.83;41.46
30856;BME280;17570;0.000;0.000;2022-12-16T10:25:42;96615.33;;;21.78;39.93
30856;BME280;17570;0.000;0.000;2022-12-16T10:28:40;96612.69;;;22.04;38.79
30856;BME280;17570;0.000;0.000;2022-12-16T10:31:23;96610.67;;;22.46;38.81
30856;BME280;17570;0.000;0.000;2022-12-16T10:34:10;96611.41;;;22.80;38.41
30856;BME280;17570;0.000;0.000;2022-12-16T10:36:56;96619.90;;;23.15;37.40
30856;BME280;17570;0.000;0.000;2022-12-16T10:39:43;96603.85;;;23.48;36.66
30856;BME280;17570;0.000;0.000;2022-12-16T10:42:29;96596.82;;;23.74;35.63
30856;BME280;17570;0.000;0.000;2022-12-16T10:45:27;96599.91;;;23.96;35.03
30856;BME280;17570;0.000;0.000;2022-12-16T10:48:11;96599.48;;;24.24;34.65
30856;BME280;17570;0.000;0.000;2022-12-16T10:50:47;96604.20;;;24.47;34.53
30856;BME280;17570;0.000;0.000;2022-12-16T10:53:32;96596.42;;;24.70;33.33
30856;BME280;17570;0.000;0.000;2022-12-16T10:59:32;96597.62;;;25.29;33.49
30856;BME280;17570;0.000;0.000;2022-12-16T11:05:00;96593.44;;;25.82;33.16
30856;BME280;17570;0.000;0.000;2022-12-16T11:10:31;96590.99;;;26.57;31.93
30856;BME280;17570;0.000;0.000;2022-12-16T11:13:18;96586.83;;;26.73;31.58
30856;BME280;17570;0.000;0.000;2022-12-16T11:16:11;96580.06;;;26.94;31.54
30856;BME280;17570;0.000;0.000;2022-12-16T11:18:57;96583.75;;;27.16;32.06
30856;BME280;17570;0.000;0.000;2022-12-16T11:21:43;96577.38;;;27.46;31.70
30856;BME280;17570;0.000;0.000;2022-12-16T11:24:28;96567.64;;;27.68;31.25
30856;BME280;17570;0.000;0.000;2022-12-16T12:29:29;96612.13;;;23.97;32.73
30856;BME280;17570;0.000;0.000;2022-12-16T12:35:18;96617.58;;;26.34;29.39
30856;BME280;17570;0.000;0.000;2022-12-16T12:37:57;96617.84;;;26.91;28.83
30856;BME280;17570;0.000;0.000;2022-12-16T12:41:00;96600.42;;;27.24;30.30
30856;BME280;17570;0.000;0.000;2022-12-16T12:43:55;96606.30;;;27.37;32.39
30856;BME280;17570;0.000;0.000;2022-12-16T12:46:32;96608.88;;;27.20;30.01
30856;BME280;17570;0.000;0.000;2022-12-16T12:49:26;96608.90;;;27.09;28.92
30856;BME280;17570;0.000;0.000;2022-12-16T12:52:19;96613.43;;;26.96;28.43
30856;BME280;17570;0.000;0.000;2022-12-16T12:58:00;96614.51;;;26.72;29.21
30856;BME280;17570;0.000;0.000;2022-12-16T13:00:52;96615.44;;;26.54;28.58
30856;BME280;17570;0.000;0.000;2022-12-16T13:06:22;96622.97;;;24.20;31.23
30856;BME280;17570;0.000;0.000;2022-12-16T13:15:04;96609.64;;;25.92;30.52
30856;BME280;17570;0.000;0.000;2022-12-16T13:20:43;96614.64;;;26.00;30.20
30856;BME280;17570;0.000;0.000;2022-12-16T13:23:30;96606.66;;;26.00;30.07
30856;BME280;17570;0.000;0.000;2022-12-16T13:26:17;96604.45;;;25.97;30.28
30856;BME280;17570;0.000;0.000;2022-12-16T13:35:04;96603.70;;;25.78;30.31
30856;BME280;17570;0.000;0.000;2022-12-16T13:37:51;96602.91;;;25.78;30.77
30856;BME280;17570;0.000;0.000;2022-12-16T13:40:48;96601.28;;;25.77;30.64
30856;BME280;17570;0.000;0.000;2022-12-16T13:43:45;96596.86;;;25.70;31.25
30856;BME280;17570;0.000;0.000;2022-12-16T13:46:45;96601.44;;;25.63;30.89
30856;BME280;17570;0.000;0.000;2022-12-16T14:01:42;96605.72;;;25.34;31.90
30856;BME280;17570;0.000;0.000;2022-12-16T14:04:34;96600.80;;;25.19;32.59
30856;BME280;17570;0.000;0.000;2022-12-16T14:07:20;96607.69;;;25.09;33.24
30856;BME280;17570;0.000;0.000;2022-12-16T14:10:18;96603.44;;;25.01;33.28
30856;BME280;17570;0.000;0.000;2022-12-16T14:13:04;96605.72;;;24.98;33.04
30856;BME280;17570;0.000;0.000;2022-12-16T14:18:44;96610.52;;;24.89;32.76
30856;BME280;17570;0.000;0.000;2022-12-16T14:21:47;96608.47;;;24.91;32.28
30856;BME280;17570;0.000;0.000;2022-12-16T14:24:28;96609.94;;;24.87;33.17
30856;BME280;17570;0.000;0.000;2022-12-16T14:27:15;96602.91;;;24.74;33.53
30856;BME280;17570;0.000;0.000;2022-12-16T14:30:01;96604.99;;;24.72;33.64
30856;BME280;17570;0.000;0.000;2022-12-16T14:32:47;96611.62;;;24.63;34.96
30856;BME280;17570;0.000;0.000;2022-12-16T14:35:33;96623.74;;;24.52;35.81
30856;BME280;17570;0.000;0.000;2022-12-16T14:38:25;96620.20;;;24.40;36.39
30856;BME280;17570;0.000;0.000;2022-12-16T14:41:15;96625.58;;;24.27;36.91
30856;BME280;17570;0.000;0.000;2022-12-16T14:44:01;96621.02;;;24.09;37.26
30856;BME280;17570;0.000;0.000;2022-12-16T14:46:48;96628.88;;;23.97;37.67
30856;BME280;17570;0.000;0.000;2022-12-16T14:49:34;96633.40;;;23.90;37.92
30856;BME280;17570;0.000;0.000;2022-12-16T14:52:24;96630.41;;;23.80;38.09
30856;BME280;17570;0.000;0.000;2022-12-16T14:55:11;96631.69;;;23.71;38.10
30856;BME280;17570;0.000;0.000;2022-12-16T14:58:00;96632.31;;;23.59;38.48
30856;BME280;17570;0.000;0.000;2022-12-16T15:00:46;96624.65;;;23.45;38.75
30856;BME280;17570;0.000;0.000;2022-12-16T15:03:34;96638.34;;;23.35;38.93
30856;BME280;17570;0.000;0.000;2022-12-16T15:06:33;96644.13;;;23.19;39.19
30856;BME280;17570;0.000;0.000;2022-12-16T15:09:23;96653.33;;;23.09;39.31
30856;BME280;17570;0.000;0.000;2022-12-16T15:12:05;96654.17;;;22.97;39.53
30856;BME280;17570;0.000;0.000;2022-12-16T15:14:52;96650.89;;;22.88;39.53
30856;BME280;17570;0.000;0.000;2022-12-16T15:17:43;96653.76;;;22.80;39.69
30856;BME280;17570;0.000;0.000;2022-12-16T15:20:29;96664.58;;;22.72;39.86
30856;BME280;17570;0.000;0.000;2022-12-16T15:26:05;96668.86;;;22.46;40.34
30856;BME280;17570;0.000;0.000;2022-12-16T15:28:51;96679.25;;;22.34;40.59
30856;BME280;17570;0.000;0.000;2022-12-16T15:31:38;96686.56;;;22.26;40.58
30856;BME280;17570;0.000;0.000;2022-12-16T15:34:31;96679.84;;;22.23;40.72
30856;BME280;17570;0.000;0.000;2022-12-16T15:37:22;96677.41;;;22.15;40.93
30856;BME280;17570;0.000;0.000;2022-12-16T15:40:13;96680.60;;;21.97;41.21
30856;BME280;17570;0.000;0.000;2022-12-16T15:42:51;96682.19;;;21.85;41.36
30856;BME280;17570;0.000;0.000;2022-12-16T15:45:37;96678.10;;;21.76;41.57
30856;BME280;17570;0.000;0.000;2022-12-16T15:48:31;96682.14;;;21.65;41.70
30856;BME280;17570;0.000;0.000;2022-12-16T15:51:22;96676.05;;;21.64;41.56
30856;BME280;17570;0.000;0.000;2022-12-16T15:54:11;96686.36;;;21.53;41.96
30856;BME280;17570;0.000;0.000;2022-12-16T15:56:52;96683.50;;;21.48;42.37
30856;BME280;17570;0.000;0.000;2022-12-16T15:59:38;96684.90;;;21.44;42.11
30856;BME280;17570;0.000;0.000;2022-12-16T16:02:26;96687.70;;;21.35;42.19
30856;BME280;17570;0.000;0.000;2022-12-16T16:05:12;96682.84;;;21.32;42.10
30856;BME280;17570;0.000;0.000;2022-12-16T16:07:58;96688.24;;;21.24;42.34
30856;BME280;17570;0.000;0.000;2022-12-16T16:10:44;96685.17;;;21.21;42.33
30856;BME280;17570;0.000;0.000;2022-12-16T16:13:29;96669.33;;;21.21;42.24
30856;BME280;17570;0.000;0.000;2022-12-16T16:16:15;96682.94;;;21.18;42.30
30856;BME280;17570;0.000;0.000;2022-12-16T16:19:00;96682.08;;;21.10;42.55
30856;BME280;17570;0.000;0.000;2022-12-16T16:21:47;96693.59;;;21.03;42.56
30856;BME280;17570;0.000;0.000;2022-12-16T16:24:32;96690.34;;;21.01;42.77
30856;BME280;17570;0.000;0.000;2022-12-16T16:27:18;96693.14;;;20.93;42.84
30856;BME280;17570;0.000;0.000;2022-12-16T16:30:04;96682.34;;;20.87;42.68
30856;BME280;17570;0.000;0.000;2022-12-16T16:32:49;96674.41;;;20.81;42.74
30856;BME280;17570;0.000;0.000;2022-12-16T16:35:35;96678.06;;;20.80;42.62
30856;BME280;17570;0.000;0.000;2022-12-16T16:38:20;96686.55;;;20.75;42.83
30856;BME280;17570;0.000;0.000;2022-12-16T16:41:09;96679.02;;;20.72;42.90
30856;BME280;17570;0.000;0.000;2022-12-16T16:43:53;96677.97;;;20.67;42.90
30856;BME280;17570;0.000;0.000;2022-12-16T16:46:41;96689.46;;;20.59;43.36
30856;BME280;17570;0.000;0.000;2022-12-16T16:49:28;96693.89;;;20.52;43.30